Terminal Aerodrome Forecast
Issued by NWS St Louis, MO

Home | Current Version | Previous Version | Text Only | Print | Product List | Glossary On
Versions: 1 2 3 4 5 6 7 8 9 10 11 12 13 14 15 16 17 18 19 20 21 22 23 24 25 26 27 28 29 30
000
FTUS43 KLSX 232200 AAB
TAFSTL
TAF AMD
KSTL 232221Z 2322/2424 VRB04KT P6SM BKN100
     FM240300 VRB05KT P6SM BKN030
     FM240600 33006KT 5SM -RA BKN015
     FM241200 32010KT 4SM -RASN SCT008 OVC015
     FM241500 29010KT 3SM -SN OVC008
      TEMPO 2416/2420 1SM -SN
     FM242200 28013KT P6SM -SN OVC010=

USA.gov is the U.S. government's official web portal to all federal, state and local government web resources and services.